createdAt,value
2022-11-05T00:00:52.398Z,9.50
2022-11-05T00:03:55.043Z,7.97
2022-11-05T00:06:41.181Z,6.30
2022-11-05T00:09:29.696Z,6.30
2022-11-05T00:12:18.024Z,7.45
2022-11-05T00:15:03.775Z,6.07
2022-11-05T00:17:31.161Z,8.32
2022-11-05T00:19:59.091Z,5.87
2022-11-05T00:22:45.317Z,8.82
2022-11-05T00:25:17.259Z,6.63
2022-11-05T00:27:49.889Z,5.90
2022-11-05T00:30:23.529Z,6.07
2022-11-05T00:32:52.708Z,5.70
2022-11-05T00:35:22.600Z,5.40
2022-11-05T00:37:50.698Z,6.13
2022-11-05T00:40:18.468Z,7.07
2022-11-05T00:43:04.657Z,7.07
2022-11-05T00:45:32.542Z,7.20
2022-11-05T00:48:18.308Z,7.78
2022-11-05T00:50:45.823Z,6.85
2022-11-05T00:53:13.726Z,6.70
2022-11-05T00:55:44.006Z,8.30
2022-11-05T00:58:17.388Z,6.07
2022-11-05T01:00:49.446Z,7.13
2022-11-05T01:03:19.352Z,6.47
2022-11-05T01:05:52.087Z,9.05
2022-11-05T01:08:21.441Z,7.57
2022-11-05T01:10:54.076Z,7.03
2022-11-05T01:13:28.426Z,7.43
2022-11-05T01:15:57.324Z,6.60
2022-11-05T01:18:25.642Z,9.10
2022-11-05T01:20:53.551Z,8.30
2022-11-05T01:23:21.423Z,6.20
2022-11-05T01:25:49.138Z,6.85
2022-11-05T01:28:16.649Z,7.75
2022-11-05T01:30:44.242Z,5.93
2022-11-05T01:33:11.865Z,8.48
2022-11-05T01:35:40.249Z,7.20
2022-11-05T01:38:07.776Z,8.15
2022-11-05T01:40:35.253Z,7.45
2022-11-05T01:43:02.726Z,7.50
2022-11-05T01:45:30.390Z,8.80
2022-11-05T01:48:13.456Z,6.83
2022-11-05T01:50:55.537Z,7.53
2022-11-05T01:53:34.830Z,6.63
2022-11-05T01:56:28.816Z,5.30
2022-11-05T01:58:59.746Z,6.18
2022-11-05T02:01:28.268Z,5.97
2022-11-05T02:04:03.446Z,5.53
2022-11-05T02:06:35.372Z,5.60
2022-11-05T02:09:31.441Z,5.63
2022-11-05T02:11:59.301Z,5.47
2022-11-05T02:14:26.830Z,5.10
2022-11-05T02:17:04.443Z,4.93
2022-11-05T02:19:50.197Z,5.35
2022-11-05T02:22:52.972Z,5.78
2022-11-05T02:25:45.075Z,5.25
2022-11-05T02:28:21.455Z,5.50
2022-11-05T02:30:48.934Z,4.95
2022-11-05T02:33:31.722Z,5.55
2022-11-05T02:36:23.439Z,4.72
2022-11-05T02:39:05.738Z,5.05
2022-11-05T02:41:51.591Z,5.37
2022-11-05T02:44:54.840Z,4.72
2022-11-05T02:48:03.507Z,4.90
2022-11-05T02:50:37.761Z,4.50
2022-11-05T02:53:14.185Z,5.00
2022-11-05T02:55:49.930Z,5.50
2022-11-05T02:58:17.637Z,4.90
2022-11-05T03:00:53.981Z,5.85
2022-11-05T03:03:35.444Z,5.45
2022-11-05T03:06:26.632Z,5.35
2022-11-05T03:09:14.025Z,4.00
2022-11-05T03:11:56.693Z,3.58
2022-11-05T03:14:36.036Z,3.80
2022-11-05T03:17:27.584Z,4.57
2022-11-05T03:20:15.669Z,5.50
2022-11-05T03:23:02.104Z,4.17
2022-11-05T03:25:30.798Z,4.03
2022-11-05T03:28:03.454Z,3.63
2022-11-05T03:30:34.096Z,3.53
2022-11-05T03:33:08.074Z,4.05
2022-11-05T03:35:40.509Z,4.27
2022-11-05T03:38:14.849Z,3.92
2022-11-05T03:40:45.232Z,4.47
2022-11-05T03:43:14.364Z,4.03
2022-11-05T03:45:48.048Z,3.92
2022-11-05T03:48:18.373Z,3.87
2022-11-05T03:51:12.660Z,4.97
2022-11-05T03:53:58.333Z,3.85
2022-11-05T03:56:37.980Z,3.90
2022-11-05T03:59:08.952Z,4.47
2022-11-05T04:01:38.208Z,5.90
2022-11-05T04:04:09.878Z,5.43
2022-11-05T04:06:55.915Z,3.45
2022-11-05T04:09:41.822Z,4.93
2022-11-05T04:12:29.469Z,3.88
2022-11-05T04:14:57.119Z,4.20
2022-11-05T04:17:24.610Z,3.78
2022-11-05T04:20:10.668Z,4.97
2022-11-05T04:22:56.346Z,4.45
2022-11-05T04:25:23.977Z,4.13
2022-11-05T04:27:51.797Z,4.20
2022-11-05T04:30:19.942Z,4.50
2022-11-05T04:33:01.128Z,3.80
2022-11-05T04:35:31.383Z,4.35
2022-11-05T04:37:59.071Z,4.20
2022-11-05T04:40:26.750Z,4.30
2022-11-05T04:42:55.988Z,4.55
2022-11-05T04:45:28.552Z,5.25
2022-11-05T04:47:55.987Z,4.30
2022-11-05T04:50:24.308Z,5.20
2022-11-05T04:52:52.145Z,5.00
2022-11-05T04:55:20.067Z,4.70
2022-11-05T04:57:52.489Z,5.32
2022-11-05T05:00:22.165Z,5.22
2022-11-05T05:02:49.791Z,5.85
2022-11-05T05:05:18.064Z,5.07
2022-11-05T05:07:46.128Z,5.30
2022-11-05T05:10:13.951Z,5.18
2022-11-05T05:12:41.785Z,5.60
2022-11-05T05:15:09.777Z,5.15
2022-11-05T05:17:37.541Z,7.33
2022-11-05T05:20:23.898Z,6.63
2022-11-05T05:22:55.262Z,5.55
2022-11-05T05:25:23.428Z,6.35
2022-11-05T05:27:51.257Z,7.82
2022-11-05T05:30:19.502Z,5.97
2022-11-05T05:32:47.040Z,5.72
2022-11-05T05:35:14.520Z,7.63
2022-11-05T05:37:42.412Z,6.43
2022-11-05T05:40:10.577Z,5.93
2022-11-05T05:42:42.921Z,7.03
2022-11-05T05:45:11.997Z,6.57
2022-11-05T05:47:39.428Z,6.90
2022-11-05T05:50:07.096Z,6.82
2022-11-05T05:52:34.437Z,7.28
2022-11-05T05:55:01.833Z,6.77
2022-11-05T05:57:29.352Z,8.27
2022-11-05T05:59:56.836Z,7.97
2022-11-05T06:02:24.400Z,7.20
2022-11-05T06:04:51.981Z,7.47
2022-11-05T06:07:19.473Z,8.77
2022-11-05T06:09:46.968Z,8.75
2022-11-05T06:12:14.409Z,6.95
2022-11-05T06:14:41.905Z,10.55
2022-11-05T06:17:09.396Z,8.35
2022-11-05T06:19:36.797Z,8.70
2022-11-05T06:22:04.316Z,11.40
2022-11-05T06:24:31.912Z,7.47
2022-11-05T06:26:59.528Z,7.75
2022-11-05T06:29:27.013Z,7.53
2022-11-05T06:31:54.553Z,7.30
2022-11-05T06:34:22.075Z,7.18
2022-11-05T06:36:49.604Z,12.55
2022-11-05T06:39:17.032Z,11.48
2022-11-05T06:42:12.151Z,8.18
2022-11-05T06:44:32.678Z,8.67
2022-11-05T06:47:00.675Z,7.50
2022-11-05T06:49:28.191Z,7.25
2022-11-05T06:51:55.674Z,7.53
2022-11-05T06:54:23.008Z,8.32
2022-11-05T06:56:50.474Z,6.90
2022-11-05T06:59:17.955Z,61.88
2022-11-05T07:01:45.482Z,7.03
2022-11-05T07:04:13.515Z,8.63
2022-11-05T07:06:40.912Z,8.70
2022-11-05T07:09:08.330Z,7.20
2022-11-05T07:11:36.310Z,7.57
2022-11-05T07:14:03.972Z,7.40
2022-11-05T07:16:31.433Z,6.18
2022-11-05T07:18:58.886Z,6.22
2022-11-05T07:21:26.387Z,8.50
2022-11-05T07:23:53.915Z,6.68
2022-11-05T07:26:21.437Z,7.32
2022-11-05T07:28:48.872Z,8.00
2022-11-05T07:31:16.427Z,7.78
2022-11-05T07:33:43.920Z,7.23
2022-11-05T07:36:11.514Z,6.30
2022-11-05T07:38:39.038Z,7.90
2022-11-05T07:41:06.476Z,6.43
2022-11-05T07:43:33.951Z,7.35
2022-11-05T07:46:01.345Z,5.60
2022-11-05T07:48:28.797Z,4.63
2022-11-05T07:50:56.296Z,4.57
2022-11-05T07:53:23.757Z,5.63
2022-11-05T07:55:53.303Z,5.63
2022-11-05T07:58:20.996Z,7.80
2022-11-05T08:00:48.620Z,7.05
2022-11-05T08:03:18.544Z,5.95
2022-11-05T08:05:48.036Z,6.32
2022-11-05T08:08:18.013Z,6.90
2022-11-05T08:10:46.198Z,7.60
2022-11-05T08:13:14.416Z,6.85
2022-11-05T08:15:43.276Z,7.20
2022-11-05T08:18:16.302Z,7.00
2022-11-05T08:20:46.002Z,8.02
2022-11-05T08:23:14.634Z,7.90
2022-11-05T08:25:42.721Z,7.60
2022-11-05T08:28:13.201Z,8.13
2022-11-05T08:30:41.596Z,8.57
2022-11-05T08:33:14.203Z,10.35
2022-11-05T08:35:42.920Z,10.27
2022-11-05T08:38:16.334Z,9.73
2022-11-05T08:40:46.357Z,10.05
2022-11-05T08:43:15.393Z,10.48
2022-11-05T08:45:43.036Z,11.07
2022-11-05T08:48:15.599Z,12.37
2022-11-05T08:50:44.356Z,13.10
2022-11-05T08:53:12.714Z,11.18
2022-11-05T08:55:40.724Z,11.43
2022-11-05T08:58:15.638Z,11.45
2022-11-05T09:00:46.329Z,12.37
2022-11-05T09:03:14.557Z,10.40
2022-11-05T09:05:43.355Z,11.68
2022-11-05T09:08:18.767Z,11.90
2022-11-05T09:10:47.843Z,12.73
2022-11-05T09:13:19.477Z,11.83
2022-11-05T09:15:49.216Z,13.25
2022-11-05T09:18:18.340Z,12.05
2022-11-05T09:20:46.371Z,12.55
2022-11-05T09:23:15.462Z,13.23
2022-11-05T09:25:43.357Z,13.10
2022-11-05T09:28:19.491Z,14.23
2022-11-05T09:30:49.442Z,12.77
2022-11-05T09:33:19.195Z,14.55
2022-11-05T09:35:47.431Z,12.68
2022-11-05T09:38:15.448Z,11.80
2022-11-05T09:40:57.753Z,13.10
2022-11-05T09:43:44.077Z,12.80
2022-11-05T09:46:30.420Z,12.95
2022-11-05T09:49:04.635Z,11.65
2022-11-05T09:51:33.271Z,13.00
2022-11-05T09:54:02.119Z,13.15
2022-11-05T09:56:33.193Z,14.55
2022-11-05T09:59:45.270Z,12.38
2022-11-05T10:02:26.329Z,12.55
2022-11-05T10:04:58.179Z,12.80
2022-11-05T10:07:30.076Z,12.25
2022-11-05T10:10:03.667Z,11.60
2022-11-05T10:12:37.616Z,12.15
2022-11-05T10:15:17.271Z,11.38
2022-11-05T10:17:59.475Z,13.30
2022-11-05T10:20:38.360Z,12.27
2022-11-05T10:23:18.443Z,11.40
2022-11-05T10:25:56.321Z,11.35
2022-11-05T10:28:28.635Z,12.18
2022-11-05T10:31:02.321Z,10.67
2022-11-05T10:33:50.798Z,10.25
2022-11-05T10:36:32.436Z,10.85
2022-11-05T10:39:20.431Z,12.00
2022-11-05T10:42:10.000Z,10.95
2022-11-05T10:45:17.881Z,11.33
2022-11-05T10:48:26.261Z,12.88
2022-11-05T10:50:54.186Z,11.02
2022-11-05T10:53:34.401Z,9.85
2022-11-05T10:56:02.076Z,10.77
2022-11-05T10:58:32.555Z,20.30
2022-11-05T11:01:02.251Z,13.15
2022-11-05T11:03:38.367Z,11.32
2022-11-05T11:06:27.037Z,10.88
2022-11-05T11:08:58.155Z,11.40
2022-11-05T11:11:34.322Z,11.17
2022-11-05T11:14:05.157Z,11.40
2022-11-05T11:16:44.282Z,10.90
2022-11-05T11:19:26.821Z,11.40
2022-11-05T11:22:07.118Z,12.52
2022-11-05T11:24:47.323Z,13.17
2022-11-05T11:27:25.556Z,11.13
2022-11-05T11:29:59.755Z,18.23
2022-11-05T11:32:47.381Z,14.77
2022-11-05T11:35:24.253Z,11.25
2022-11-05T11:37:57.117Z,12.10
2022-11-05T11:40:32.881Z,14.35
2022-11-05T11:43:13.333Z,12.10
2022-11-05T11:45:48.514Z,12.23
2022-11-05T11:48:34.617Z,11.32
2022-11-05T11:51:25.795Z,11.43
2022-11-05T11:53:58.258Z,10.23
2022-11-05T11:56:26.656Z,12.00
2022-11-05T11:58:56.085Z,11.68
2022-11-05T12:01:39.173Z,10.55
2022-11-05T12:04:47.682Z,11.00
2022-11-05T12:07:22.045Z,11.10
2022-11-05T12:10:17.397Z,12.30
2022-11-05T12:12:53.231Z,15.70
2022-11-05T12:15:39.341Z,12.68
2022-11-05T12:18:18.214Z,11.17
2022-11-05T12:20:58.531Z,11.48
2022-11-05T12:23:35.263Z,11.20
2022-11-05T12:26:18.992Z,12.13
2022-11-05T12:29:18.968Z,11.38
2022-11-05T12:31:55.796Z,11.45
2022-11-05T12:34:30.544Z,12.23
2022-11-05T12:37:21.036Z,13.00
2022-11-05T12:40:13.068Z,10.82
2022-11-05T12:43:03.538Z,10.63
2022-11-05T12:45:54.556Z,14.90
2022-11-05T12:48:43.198Z,10.75
2022-11-05T12:51:48.232Z,11.52
2022-11-05T12:55:04.441Z,11.23
2022-11-05T12:57:35.995Z,12.23
2022-11-05T13:00:10.953Z,10.73
2022-11-05T13:02:55.316Z,10.57
2022-11-05T13:05:33.589Z,11.82
2022-11-05T13:08:24.757Z,11.82
2022-11-05T13:11:12.117Z,12.00
2022-11-05T13:13:47.592Z,12.10
2022-11-05T13:16:31.279Z,12.38
2022-11-05T13:19:03.818Z,10.48
2022-11-05T13:21:32.898Z,11.57
2022-11-05T13:24:13.786Z,13.88
2022-11-05T13:26:55.971Z,10.97
2022-11-05T13:29:41.829Z,11.07
2022-11-05T13:32:29.995Z,13.38
2022-11-05T13:35:02.463Z,11.27
2022-11-05T13:37:54.331Z,11.50
2022-11-05T13:40:31.216Z,11.77
2022-11-05T13:43:16.336Z,11.15
2022-11-05T13:46:04.465Z,12.38
2022-11-05T13:48:42.466Z,9.88
2022-11-05T13:51:47.093Z,12.63
2022-11-05T13:54:46.974Z,12.20
2022-11-05T13:57:37.429Z,17.50
2022-11-05T14:00:11.851Z,13.00
2022-11-05T14:02:44.527Z,13.20
2022-11-05T14:05:30.938Z,11.25
2022-11-05T14:08:01.672Z,10.93
2022-11-05T14:10:42.214Z,13.02
2022-11-05T14:13:42.688Z,13.75
2022-11-05T14:16:25.318Z,12.40
2022-11-05T14:19:18.477Z,15.45
2022-11-05T14:21:51.627Z,12.70
2022-11-05T14:24:22.154Z,12.82
2022-11-05T14:27:02.754Z,11.35
2022-11-05T14:29:42.279Z,11.85
2022-11-05T14:32:21.760Z,13.32
2022-11-05T14:34:57.392Z,13.20
2022-11-05T14:37:30.717Z,12.80
2022-11-05T14:40:22.083Z,13.18
2022-11-05T14:43:02.364Z,13.63
2022-11-05T14:45:33.519Z,12.52
2022-11-05T14:48:03.834Z,13.70
2022-11-05T14:50:41.196Z,14.50
2022-11-05T14:53:25.636Z,14.10
2022-11-05T14:56:09.963Z,14.88
2022-11-05T14:58:40.773Z,15.00
2022-11-05T15:01:30.482Z,12.70
2022-11-05T15:04:31.562Z,15.95
2022-11-05T15:07:34.403Z,15.93
2022-11-05T15:10:23.893Z,13.95
2022-11-05T15:13:04.382Z,15.68
2022-11-05T15:15:47.482Z,13.33
2022-11-05T15:18:31.043Z,14.30
2022-11-05T15:21:02.370Z,12.85
2022-11-05T15:23:45.387Z,15.13
2022-11-05T15:26:20.994Z,18.13
2022-11-05T15:28:51.291Z,14.97
2022-11-05T15:31:36.523Z,14.32
2022-11-05T15:34:16.790Z,12.85
2022-11-05T15:36:58.003Z,17.10
2022-11-05T15:39:41.788Z,47.47
2022-11-05T15:42:24.057Z,16.60
2022-11-05T15:44:55.413Z,14.95
2022-11-05T15:47:30.535Z,13.70
2022-11-05T15:50:01.656Z,13.88
2022-11-05T15:52:42.537Z,14.48
2022-11-05T15:55:25.315Z,16.63
2022-11-05T15:58:06.846Z,14.02
2022-11-05T16:00:36.739Z,14.80
2022-11-05T16:03:25.292Z,13.70
2022-11-05T16:05:54.225Z,14.38
2022-11-05T16:08:30.750Z,13.53
2022-11-05T16:10:59.959Z,14.60
2022-11-05T16:13:37.946Z,16.27
2022-11-05T16:16:23.551Z,12.93
2022-11-05T16:18:51.256Z,14.98
2022-11-05T16:21:23.057Z,15.30
2022-11-05T16:23:58.362Z,12.95
2022-11-05T16:27:01.734Z,13.57
2022-11-05T16:29:30.284Z,15.15
2022-11-05T16:32:00.280Z,15.13
2022-11-05T16:34:41.220Z,68.73
2022-11-05T16:37:16.675Z,17.85
2022-11-05T16:39:44.300Z,14.80
2022-11-05T16:42:23.710Z,13.93
2022-11-05T16:44:52.271Z,14.30
2022-11-05T16:47:22.618Z,15.73
2022-11-05T16:49:51.199Z,16.88
2022-11-05T16:52:19.943Z,15.27
2022-11-05T16:54:47.460Z,17.50
2022-11-05T16:57:26.299Z,15.73
2022-11-05T16:59:55.081Z,41.03
2022-11-05T17:02:23.077Z,25.45
2022-11-05T17:04:50.916Z,17.02
2022-11-05T17:07:18.569Z,15.02
2022-11-05T17:09:46.361Z,16.38
2022-11-05T17:12:15.003Z,15.00
2022-11-05T17:14:44.106Z,18.25
2022-11-05T17:17:12.281Z,15.07
2022-11-05T17:19:44.745Z,17.17
2022-11-05T17:22:12.946Z,16.00
2022-11-05T17:24:40.487Z,16.10
2022-11-05T17:27:08.198Z,18.20
2022-11-05T17:29:36.514Z,16.00
2022-11-05T17:32:06.501Z,17.77
2022-11-05T17:34:34.013Z,16.40
2022-11-05T17:37:01.521Z,15.57
2022-11-05T17:39:31.759Z,16.65
2022-11-05T17:42:00.241Z,17.52
2022-11-05T17:44:30.376Z,16.88
2022-11-05T17:46:57.996Z,16.73
2022-11-05T17:49:25.646Z,18.37
2022-11-05T17:51:53.162Z,17.95
2022-11-05T17:54:20.893Z,17.08
2022-11-05T17:56:48.840Z,44.88
2022-11-05T17:59:19.027Z,35.90
2022-11-05T18:01:48.316Z,17.87
2022-11-05T18:04:16.282Z,17.75
2022-11-05T18:06:45.071Z,17.52
2022-11-05T18:09:13.451Z,17.80
2022-11-05T18:11:42.081Z,19.38
2022-11-05T18:14:11.206Z,16.80
2022-11-05T18:16:39.241Z,19.38
2022-11-05T18:19:06.956Z,18.00
2022-11-05T18:21:34.566Z,17.02
2022-11-05T18:24:07.006Z,18.13
2022-11-05T18:26:35.292Z,19.83
2022-11-05T18:29:04.563Z,19.60
2022-11-05T18:31:34.466Z,18.90
2022-11-05T18:34:04.160Z,17.95
2022-11-05T18:36:33.118Z,23.02
2022-11-05T18:39:04.677Z,20.17
2022-11-05T18:41:33.380Z,22.35
2022-11-05T18:44:02.568Z,20.35
2022-11-05T18:46:58.945Z,19.25
2022-11-05T18:49:19.333Z,20.02
2022-11-05T18:51:47.002Z,19.07
2022-11-05T18:54:15.097Z,19.63
2022-11-05T18:56:45.893Z,21.85
2022-11-05T18:59:39.203Z,20.15
2022-11-05T19:02:08.648Z,24.10
2022-11-05T19:04:37.523Z,20.67
2022-11-05T19:07:06.058Z,21.63
2022-11-05T19:09:38.977Z,21.15
2022-11-05T19:12:08.613Z,20.50
2022-11-05T19:14:36.852Z,23.33
2022-11-05T19:17:04.918Z,23.27
2022-11-05T19:19:32.603Z,23.42
2022-11-05T19:22:00.123Z,23.38
2022-11-05T19:24:29.631Z,20.17
2022-11-05T19:26:58.416Z,22.55
2022-11-05T19:29:26.051Z,22.33
2022-11-05T19:31:53.516Z,21.42
2022-11-05T19:34:21.172Z,21.48
2022-11-05T19:36:48.802Z,23.25
2022-11-05T19:39:16.617Z,21.50
2022-11-05T19:41:44.208Z,26.27
2022-11-05T19:44:11.957Z,23.00
2022-11-05T19:46:39.722Z,23.40
2022-11-05T19:49:07.211Z,22.63
2022-11-05T19:51:34.881Z,44.45
2022-11-05T19:54:04.213Z,23.23
2022-11-05T19:56:34.932Z,20.42
2022-11-05T19:59:07.682Z,20.85
2022-11-05T20:01:37.000Z,24.92
2022-11-05T20:04:05.262Z,25.15
2022-11-05T20:06:38.121Z,23.53
2022-11-05T20:09:21.507Z,23.73
2022-11-05T20:11:51.330Z,23.20
2022-11-05T20:14:18.962Z,22.80
2022-11-05T20:16:49.518Z,23.90
2022-11-05T20:19:20.585Z,26.17
2022-11-05T20:21:48.323Z,23.05
2022-11-05T20:24:23.747Z,22.27
2022-11-05T20:26:54.215Z,22.42
2022-11-05T20:29:22.892Z,23.42
2022-11-05T20:31:51.163Z,25.20
2022-11-05T20:34:18.771Z,25.42
2022-11-05T20:36:46.322Z,23.45
2022-11-05T20:39:13.922Z,22.27
2022-11-05T20:41:41.575Z,22.15
2022-11-05T20:44:09.166Z,27.27
2022-11-05T20:46:36.800Z,21.58
2022-11-05T20:49:04.282Z,22.35
2022-11-05T20:51:32.122Z,22.67
2022-11-05T20:54:01.485Z,22.55
2022-11-05T20:56:32.236Z,21.17
2022-11-05T20:59:01.038Z,21.27
2022-11-05T21:01:31.447Z,21.35
2022-11-05T21:04:00.155Z,67.32
2022-11-05T21:06:28.021Z,22.20
2022-11-05T21:08:55.894Z,22.97
2022-11-05T21:11:23.853Z,22.33
2022-11-05T21:13:51.373Z,24.08
2022-11-05T21:16:20.063Z,23.48
2022-11-05T21:18:48.256Z,19.13
2022-11-05T21:21:19.158Z,24.40
2022-11-05T21:23:47.135Z,21.30
2022-11-05T21:26:18.050Z,22.33
2022-11-05T21:28:45.968Z,20.98
2022-11-05T21:31:13.608Z,22.92
2022-11-05T21:33:41.136Z,20.20
2022-11-05T21:36:13.733Z,20.83
2022-11-05T21:38:42.013Z,19.38
2022-11-05T21:41:12.658Z,19.55
2022-11-05T21:43:42.088Z,21.27
2022-11-05T21:46:12.520Z,22.87
2022-11-05T21:48:40.348Z,21.10
2022-11-05T21:51:26.739Z,19.48
2022-11-05T21:54:12.929Z,18.95
2022-11-05T21:56:58.609Z,18.15
2022-11-05T21:59:44.849Z,18.57
2022-11-05T22:02:14.078Z,18.65
2022-11-05T22:04:45.693Z,16.92
2022-11-05T22:07:16.049Z,17.38
2022-11-05T22:09:43.869Z,15.20
2022-11-05T22:12:11.974Z,14.90
2022-11-05T22:14:40.253Z,17.98
2022-11-05T22:17:09.220Z,14.60
2022-11-05T22:19:37.133Z,15.90
2022-11-05T22:22:06.098Z,15.65
2022-11-05T22:24:34.932Z,16.67
2022-11-05T22:27:05.213Z,19.13
2022-11-05T22:29:32.729Z,13.75
2022-11-05T22:32:00.554Z,16.65
2022-11-05T22:34:28.541Z,16.38
2022-11-05T22:36:56.099Z,14.67
2022-11-05T22:39:26.068Z,14.32
2022-11-05T22:43:20.733Z,13.25
2022-11-05T22:45:48.376Z,14.65
2022-11-05T22:48:16.173Z,14.65
2022-11-05T22:50:43.754Z,13.77
2022-11-05T22:53:11.439Z,13.85
2022-11-05T22:55:41.995Z,13.63
2022-11-05T22:58:09.888Z,15.27
2022-11-05T23:00:39.685Z,14.25
2022-11-05T23:03:07.300Z,14.90
2022-11-05T23:05:35.095Z,15.05
2022-11-05T23:08:21.452Z,14.20
2022-11-05T23:11:07.322Z,17.23
2022-11-05T23:13:34.834Z,14.02
2022-11-05T23:16:21.039Z,13.00
2022-11-05T23:19:10.316Z,12.60
2022-11-05T23:21:56.374Z,12.88
2022-11-05T23:24:24.351Z,13.45
2022-11-05T23:26:52.057Z,11.65
2022-11-05T23:29:25.136Z,13.23
2022-11-05T23:32:12.075Z,12.95
2022-11-05T23:34:39.845Z,13.02
2022-11-05T23:37:26.368Z,11.80
2022-11-05T23:39:54.194Z,14.00
2022-11-05T23:42:40.768Z,13.87
2022-11-05T23:45:27.208Z,13.18
2022-11-05T23:48:13.594Z,12.88
2022-11-05T23:50:42.359Z,11.60
2022-11-05T23:53:10.836Z,12.50
2022-11-05T23:55:40.075Z,12.83
2022-11-05T23:58:08.041Z,12.50
